sensor_id;sensor_type;location;lat;lon;timestamp;P1;durP1;ratioP1;P2;durP2;ratioP2
13866;SDS011;7003;46.982;15.248;2023-05-10T00:00:41;4.35;;;3.45;;
13866;SDS011;7003;46.982;15.248;2023-05-10T00:03:10;3.10;;;2.80;;
13866;SDS011;7003;46.982;15.248;2023-05-10T00:05:40;3.40;;;2.80;;
13866;SDS011;7003;46.982;15.248;2023-05-10T00:08:13;4.03;;;3.50;;
13866;SDS011;7003;46.982;15.248;2023-05-10T00:10:47;4.30;;;3.28;;
13866;SDS011;7003;46.982;15.248;2023-05-10T00:13:24;3.65;;;3.35;;
13866;SDS011;7003;46.982;15.248;2023-05-10T00:15:55;8.40;;;3.35;;
13866;SDS011;7003;46.982;15.248;2023-05-10T00:18:23;3.40;;;3.10;;
13866;SDS011;7003;46.982;15.248;2023-05-10T00:20:55;3.15;;;2.47;;
13866;SDS011;7003;46.982;15.248;2023-05-10T00:23:29;2.78;;;2.38;;
13866;SDS011;7003;46.982;15.248;2023-05-10T00:25:58;2.97;;;2.63;;
13866;SDS011;7003;46.982;15.248;2023-05-10T00:28:28;2.63;;;2.40;;
13866;SDS011;7003;46.982;15.248;2023-05-10T00:31:08;2.50;;;2.30;;
13866;SDS011;7003;46.982;15.248;2023-05-10T00:33:41;6.30;;;3.93;;
13866;SDS011;7003;46.982;15.248;2023-05-10T00:36:10;4.80;;;3.23;;
13866;SDS011;7003;46.982;15.248;2023-05-10T00:38:41;3.93;;;2.93;;
13866;SDS011;7003;46.982;15.248;2023-05-10T00:41:19;4.40;;;3.97;;
13866;SDS011;7003;46.982;15.248;2023-05-10T00:43:49;4.13;;;3.70;;
13866;SDS011;7003;46.982;15.248;2023-05-10T00:46:20;4.07;;;3.28;;
13866;SDS011;7003;46.982;15.248;2023-05-10T00:48:51;3.15;;;2.58;;
13866;SDS011;7003;46.982;15.248;2023-05-10T00:51:23;4.18;;;3.58;;
13866;SDS011;7003;46.982;15.248;2023-05-10T00:53:52;2.47;;;2.28;;
13866;SDS011;7003;46.982;15.248;2023-05-10T00:56:25;3.50;;;3.20;;
13866;SDS011;7003;46.982;15.248;2023-05-10T00:58:57;2.30;;;2.10;;
13866;SDS011;7003;46.982;15.248;2023-05-10T01:01:25;4.20;;;2.70;;
13866;SDS011;7003;46.982;15.248;2023-05-10T01:03:53;3.30;;;3.00;;
13866;SDS011;7003;46.982;15.248;2023-05-10T01:06:22;4.30;;;3.78;;
13866;SDS011;7003;46.982;15.248;2023-05-10T01:08:52;2.50;;;2.03;;
13866;SDS011;7003;46.982;15.248;2023-05-10T01:11:20;3.97;;;2.70;;
13866;SDS011;7003;46.982;15.248;2023-05-10T01:13:50;3.50;;;3.20;;
13866;SDS011;7003;46.982;15.248;2023-05-10T01:16:21;4.37;;;3.33;;
13866;SDS011;7003;46.982;15.248;2023-05-10T01:18:53;2.50;;;2.30;;
13866;SDS011;7003;46.982;15.248;2023-05-10T01:21:23;4.07;;;2.07;;
13866;SDS011;7003;46.982;15.248;2023-05-10T01:27:18;3.00;;;2.57;;
13866;SDS011;7003;46.982;15.248;2023-05-10T01:30:16;4.73;;;2.40;;
13866;SDS011;7003;46.982;15.248;2023-05-10T01:33:09;7.93;;;3.57;;
13866;SDS011;7003;46.982;15.248;2023-05-10T01:35:43;2.93;;;2.27;;
13866;SDS011;7003;46.982;15.248;2023-05-10T01:38:19;8.27;;;3.07;;
13866;SDS011;7003;46.982;15.248;2023-05-10T01:40:59;4.47;;;3.43;;
13866;SDS011;7003;46.982;15.248;2023-05-10T01:43:37;3.13;;;2.53;;
13866;SDS011;7003;46.982;15.248;2023-05-10T01:46:10;2.00;;;1.90;;
13866;SDS011;7003;46.982;15.248;2023-05-10T01:48:47;3.33;;;3.03;;
13866;SDS011;7003;46.982;15.248;2023-05-10T01:51:21;2.30;;;2.10;;
13866;SDS011;7003;46.982;15.248;2023-05-10T01:53:54;2.53;;;2.27;;
13866;SDS011;7003;46.982;15.248;2023-05-10T01:56:32;3.20;;;2.87;;
13866;SDS011;7003;46.982;15.248;2023-05-10T01:59:05;2.70;;;2.30;;
13866;SDS011;7003;46.982;15.248;2023-05-10T02:01:35;2.67;;;2.47;;
13866;SDS011;7003;46.982;15.248;2023-05-10T02:04:05;4.50;;;4.07;;
13866;SDS011;7003;46.982;15.248;2023-05-10T02:06:34;3.63;;;2.63;;
13866;SDS011;7003;46.982;15.248;2023-05-10T02:09:02;2.90;;;2.30;;
13866;SDS011;7003;46.982;15.248;2023-05-10T02:11:33;3.20;;;2.90;;
13866;SDS011;7003;46.982;15.248;2023-05-10T02:14:00;4.23;;;3.03;;
13866;SDS011;7003;46.982;15.248;2023-05-10T02:16:31;3.10;;;2.80;;
13866;SDS011;7003;46.982;15.248;2023-05-10T02:18:59;2.77;;;2.47;;
13866;SDS011;7003;46.982;15.248;2023-05-10T02:21:38;3.37;;;2.77;;
13866;SDS011;7003;46.982;15.248;2023-05-10T02:24:06;4.77;;;2.67;;
13866;SDS011;7003;46.982;15.248;2023-05-10T02:26:35;3.80;;;3.27;;
13866;SDS011;7003;46.982;15.248;2023-05-10T02:29:04;3.07;;;2.77;;
13866;SDS011;7003;46.982;15.248;2023-05-10T02:31:33;6.63;;;3.67;;
13866;SDS011;7003;46.982;15.248;2023-05-10T02:34:04;3.30;;;3.00;;
13866;SDS011;7003;46.982;15.248;2023-05-10T02:36:33;5.23;;;3.60;;
13866;SDS011;7003;46.982;15.248;2023-05-10T02:39:02;6.03;;;3.43;;
13866;SDS011;7003;46.982;15.248;2023-05-10T02:41:34;4.93;;;3.30;;
13866;SDS011;7003;46.982;15.248;2023-05-10T02:44:03;3.43;;;2.63;;
13866;SDS011;7003;46.982;15.248;2023-05-10T02:46:34;3.40;;;3.10;;
13866;SDS011;7003;46.982;15.248;2023-05-10T02:49:04;4.33;;;2.83;;
13866;SDS011;7003;46.982;15.248;2023-05-10T02:51:32;4.60;;;3.17;;
13866;SDS011;7003;46.982;15.248;2023-05-10T02:54:06;3.47;;;2.70;;
13866;SDS011;7003;46.982;15.248;2023-05-10T02:56:40;3.80;;;2.80;;
13866;SDS011;7003;46.982;15.248;2023-05-10T02:59:13;4.23;;;3.83;;
13866;SDS011;7003;46.982;15.248;2023-05-10T03:01:43;3.87;;;2.73;;
13866;SDS011;7003;46.982;15.248;2023-05-10T03:04:10;4.53;;;3.07;;
13866;SDS011;7003;46.982;15.248;2023-05-10T03:06:38;3.50;;;3.13;;
13866;SDS011;7003;46.982;15.248;2023-05-10T03:09:09;3.13;;;2.67;;
13866;SDS011;7003;46.982;15.248;2023-05-10T03:11:43;6.33;;;3.73;;
13866;SDS011;7003;46.982;15.248;2023-05-10T03:14:21;3.37;;;3.03;;
13866;SDS011;7003;46.982;15.248;2023-05-10T03:16:59;4.30;;;3.10;;
13866;SDS011;7003;46.982;15.248;2023-05-10T03:19:35;3.50;;;2.57;;
13866;SDS011;7003;46.982;15.248;2023-05-10T03:22:11;3.40;;;3.10;;
13866;SDS011;7003;46.982;15.248;2023-05-10T03:24:49;3.00;;;2.70;;
13866;SDS011;7003;46.982;15.248;2023-05-10T03:27:23;4.03;;;3.43;;
13866;SDS011;7003;46.982;15.248;2023-05-10T03:29:53;3.37;;;2.77;;
13866;SDS011;7003;46.982;15.248;2023-05-10T03:32:25;2.70;;;2.50;;
13866;SDS011;7003;46.982;15.248;2023-05-10T03:34:56;3.47;;;3.17;;
13866;SDS011;7003;46.982;15.248;2023-05-10T03:37:24;3.30;;;2.90;;
13866;SDS011;7003;46.982;15.248;2023-05-10T03:39:55;3.13;;;2.87;;
13866;SDS011;7003;46.982;15.248;2023-05-10T03:42:23;4.40;;;3.97;;
13866;SDS011;7003;46.982;15.248;2023-05-10T03:44:53;7.03;;;3.40;;
13866;SDS011;7003;46.982;15.248;2023-05-10T03:47:21;3.77;;;3.10;;
13866;SDS011;7003;46.982;15.248;2023-05-10T03:49:52;3.60;;;2.93;;
13866;SDS011;7003;46.982;15.248;2023-05-10T03:52:22;4.07;;;2.93;;
13866;SDS011;7003;46.982;15.248;2023-05-10T03:54:50;3.03;;;2.70;;
13866;SDS011;7003;46.982;15.248;2023-05-10T03:57:22;2.87;;;2.63;;
13866;SDS011;7003;46.982;15.248;2023-05-10T03:59:50;3.87;;;2.97;;
13866;SDS011;7003;46.982;15.248;2023-05-10T04:02:18;3.17;;;2.87;;
13866;SDS011;7003;46.982;15.248;2023-05-10T04:04:46;2.87;;;2.67;;
13866;SDS011;7003;46.982;15.248;2023-05-10T04:07:16;6.77;;;3.87;;
13866;SDS011;7003;46.982;15.248;2023-05-10T04:09:44;4.00;;;3.00;;
13866;SDS011;7003;46.982;15.248;2023-05-10T04:12:16;3.27;;;3.03;;
13866;SDS011;7003;46.982;15.248;2023-05-10T04:14:45;6.83;;;2.90;;
13866;SDS011;7003;46.982;15.248;2023-05-10T04:17:13;4.97;;;3.47;;
13866;SDS011;7003;46.982;15.248;2023-05-10T04:19:44;4.27;;;3.57;;
13866;SDS011;7003;46.982;15.248;2023-05-10T04:22:14;3.33;;;3.07;;
13866;SDS011;7003;46.982;15.248;2023-05-10T04:24:42;4.37;;;3.93;;
13866;SDS011;7003;46.982;15.248;2023-05-10T04:27:12;3.53;;;3.23;;
13866;SDS011;7003;46.982;15.248;2023-05-10T04:29:41;3.50;;;2.67;;
13866;SDS011;7003;46.982;15.248;2023-05-10T04:32:10;2.97;;;2.73;;
13866;SDS011;7003;46.982;15.248;2023-05-10T04:34:41;2.97;;;2.77;;
13866;SDS011;7003;46.982;15.248;2023-05-10T04:37:09;3.57;;;3.23;;
13866;SDS011;7003;46.982;15.248;2023-05-10T04:39:37;3.47;;;3.17;;
13866;SDS011;7003;46.982;15.248;2023-05-10T04:42:07;7.80;;;4.03;;
13866;SDS011;7003;46.982;15.248;2023-05-10T04:44:35;6.30;;;4.90;;
13866;SDS011;7003;46.982;15.248;2023-05-10T04:47:04;5.93;;;4.03;;
13866;SDS011;7003;46.982;15.248;2023-05-10T04:49:33;3.87;;;2.90;;
13866;SDS011;7003;46.982;15.248;2023-05-10T04:52:01;4.00;;;3.57;;
13866;SDS011;7003;46.982;15.248;2023-05-10T04:54:31;4.70;;;3.13;;
13866;SDS011;7003;46.982;15.248;2023-05-10T04:57:00;3.77;;;3.27;;
13866;SDS011;7003;46.982;15.248;2023-05-10T04:59:30;4.10;;;3.37;;
13866;SDS011;7003;46.982;15.248;2023-05-10T05:01:58;4.70;;;3.30;;
13866;SDS011;7003;46.982;15.248;2023-05-10T05:04:26;3.17;;;2.87;;
13866;SDS011;7003;46.982;15.248;2023-05-10T05:06:58;4.77;;;3.97;;
13866;SDS011;7003;46.982;15.248;2023-05-10T05:09:28;4.20;;;3.67;;
13866;SDS011;7003;46.982;15.248;2023-05-10T05:11:57;3.67;;;3.38;;
13866;SDS011;7003;46.982;15.248;2023-05-10T05:14:28;6.80;;;3.50;;
13866;SDS011;7003;46.982;15.248;2023-05-10T05:16:57;3.67;;;3.38;;
13866;SDS011;7003;46.982;15.248;2023-05-10T05:19:25;3.58;;;3.28;;
13866;SDS011;7003;46.982;15.248;2023-05-10T05:21:53;5.38;;;3.75;;
13866;SDS011;7003;46.982;15.248;2023-05-10T05:24:22;5.07;;;4.40;;
13866;SDS011;7003;46.982;15.248;2023-05-10T05:26:50;3.67;;;3.38;;
13866;SDS011;7003;46.982;15.248;2023-05-10T05:29:20;4.38;;;3.65;;
13866;SDS011;7003;46.982;15.248;2023-05-10T05:31:47;4.20;;;3.80;;
13866;SDS011;7003;46.982;15.248;2023-05-10T05:34:15;4.28;;;3.85;;
13866;SDS011;7003;46.982;15.248;2023-05-10T05:36:45;3.55;;;3.25;;
13866;SDS011;7003;46.982;15.248;2023-05-10T05:39:15;3.47;;;3.17;;
13866;SDS011;7003;46.982;15.248;2023-05-10T05:41:46;6.03;;;3.65;;
13866;SDS011;7003;46.982;15.248;2023-05-10T05:44:16;4.75;;;3.40;;
13866;SDS011;7003;46.982;15.248;2023-05-10T05:46:46;5.68;;;4.20;;
13866;SDS011;7003;46.982;15.248;2023-05-10T05:49:19;3.88;;;3.50;;
13866;SDS011;7003;46.982;15.248;2023-05-10T05:51:47;4.55;;;2.88;;
13866;SDS011;7003;46.982;15.248;2023-05-10T05:54:15;2.92;;;2.72;;
13866;SDS011;7003;46.982;15.248;2023-05-10T05:56:43;4.40;;;3.65;;
13866;SDS011;7003;46.982;15.248;2023-05-10T05:59:14;3.97;;;3.20;;
13866;SDS011;7003;46.982;15.248;2023-05-10T06:01:42;3.92;;;3.40;;
13866;SDS011;7003;46.982;15.248;2023-05-10T06:04:10;4.30;;;3.50;;
13866;SDS011;7003;46.982;15.248;2023-05-10T06:06:41;4.53;;;3.22;;
13866;SDS011;7003;46.982;15.248;2023-05-10T06:09:08;9.35;;;3.60;;
13866;SDS011;7003;46.982;15.248;2023-05-10T06:11:36;5.68;;;3.90;;
13866;SDS011;7003;46.982;15.248;2023-05-10T06:14:06;3.78;;;3.35;;
13866;SDS011;7003;46.982;15.248;2023-05-10T06:16:35;3.88;;;3.45;;
13866;SDS011;7003;46.982;15.248;2023-05-10T06:19:05;3.30;;;3.00;;
13866;SDS011;7003;46.982;15.248;2023-05-10T06:21:33;3.60;;;3.30;;
13866;SDS011;7003;46.982;15.248;2023-05-10T06:24:01;3.72;;;3.38;;
13866;SDS011;7003;46.982;15.248;2023-05-10T06:26:29;5.22;;;4.13;;
13866;SDS011;7003;46.982;15.248;2023-05-10T06:28:59;3.60;;;3.17;;
13866;SDS011;7003;46.982;15.248;2023-05-10T06:31:26;6.43;;;4.22;;
13866;SDS011;7003;46.982;15.248;2023-05-10T06:33:55;8.55;;;4.82;;
13866;SDS011;7003;46.982;15.248;2023-05-10T06:36:25;5.75;;;3.10;;
13866;SDS011;7003;46.982;15.248;2023-05-10T06:38:55;5.50;;;4.45;;
13866;SDS011;7003;46.982;15.248;2023-05-10T06:41:22;7.60;;;4.35;;
13866;SDS011;7003;46.982;15.248;2023-05-10T06:43:50;9.00;;;4.70;;
13866;SDS011;7003;46.982;15.248;2023-05-10T06:46:18;4.40;;;4.00;;
13866;SDS011;7003;46.982;15.248;2023-05-10T06:48:46;8.65;;;5.28;;
13866;SDS011;7003;46.982;15.248;2023-05-10T06:51:15;4.60;;;4.20;;
13866;SDS011;7003;46.982;15.248;2023-05-10T06:53:45;6.60;;;4.97;;
13866;SDS011;7003;46.982;15.248;2023-05-10T06:56:12;4.75;;;4.32;;
13866;SDS011;7003;46.982;15.248;2023-05-10T06:58:40;8.25;;;6.10;;
13866;SDS011;7003;46.982;15.248;2023-05-10T07:01:07;7.88;;;6.15;;
13866;SDS011;7003;46.982;15.248;2023-05-10T07:03:37;8.10;;;4.38;;
13866;SDS011;7003;46.982;15.248;2023-05-10T07:06:08;5.55;;;4.30;;
13866;SDS011;7003;46.982;15.248;2023-05-10T07:08:37;6.63;;;4.82;;
13866;SDS011;7003;46.982;15.248;2023-05-10T07:11:05;4.63;;;4.22;;
13866;SDS011;7003;46.982;15.248;2023-05-10T07:13:36;6.68;;;4.20;;
13866;SDS011;7003;46.982;15.248;2023-05-10T07:16:09;4.85;;;4.45;;
13866;SDS011;7003;46.982;15.248;2023-05-10T07:18:37;4.80;;;3.97;;
13866;SDS011;7003;46.982;15.248;2023-05-10T07:21:07;4.70;;;4.20;;
13866;SDS011;7003;46.982;15.248;2023-05-10T07:23:34;4.10;;;3.70;;
13866;SDS011;7003;46.982;15.248;2023-05-10T07:26:05;6.68;;;3.83;;
13866;SDS011;7003;46.982;15.248;2023-05-10T07:28:34;10.38;;;4.65;;
13866;SDS011;7003;46.982;15.248;2023-05-10T07:31:05;6.28;;;4.45;;
13866;SDS011;7003;46.982;15.248;2023-05-10T07:33:32;4.93;;;3.80;;
13866;SDS011;7003;46.982;15.248;2023-05-10T07:36:03;4.00;;;3.20;;
13866;SDS011;7003;46.982;15.248;2023-05-10T07:38:31;5.47;;;4.10;;
13866;SDS011;7003;46.982;15.248;2023-05-10T07:40:58;5.97;;;4.25;;
13866;SDS011;7003;46.982;15.248;2023-05-10T07:43:27;4.10;;;3.53;;
13866;SDS011;7003;46.982;15.248;2023-05-10T07:45:57;6.35;;;4.60;;
13866;SDS011;7003;46.982;15.248;2023-05-10T07:48:25;7.18;;;4.40;;
13866;SDS011;7003;46.982;15.248;2023-05-10T07:50:53;4.20;;;3.80;;
13866;SDS011;7003;46.982;15.248;2023-05-10T07:53:21;6.68;;;3.53;;
13866;SDS011;7003;46.982;15.248;2023-05-10T07:55:49;4.82;;;3.38;;
13866;SDS011;7003;46.982;15.248;2023-05-10T07:58:17;4.60;;;4.10;;
13866;SDS011;7003;46.982;15.248;2023-05-10T08:00:46;4.10;;;3.55;;
13866;SDS011;7003;46.982;15.248;2023-05-10T08:03:14;6.20;;;3.08;;
13866;SDS011;7003;46.982;15.248;2023-05-10T08:05:42;4.82;;;3.08;;
13866;SDS011;7003;46.982;15.248;2023-05-10T08:08:13;3.95;;;3.08;;
13866;SDS011;7003;46.982;15.248;2023-05-10T08:10:40;4.05;;;2.90;;
13866;SDS011;7003;46.982;15.248;2023-05-10T08:13:08;5.63;;;3.85;;
13866;SDS011;7003;46.982;15.248;2023-05-10T08:15:35;3.47;;;3.15;;
13866;SDS011;7003;46.982;15.248;2023-05-10T08:18:04;5.03;;;3.78;;
13866;SDS011;7003;46.982;15.248;2023-05-10T08:20:32;4.07;;;3.38;;
13866;SDS011;7003;46.982;15.248;2023-05-10T08:23:01;4.97;;;3.22;;
13866;SDS011;7003;46.982;15.248;2023-05-10T08:25:29;5.90;;;3.78;;
13866;SDS011;7003;46.982;15.248;2023-05-10T08:28:00;4.30;;;3.53;;
13866;SDS011;7003;46.982;15.248;2023-05-10T08:30:28;4.20;;;3.42;;
13866;SDS011;7003;46.982;15.248;2023-05-10T08:32:57;4.53;;;3.22;;
13866;SDS011;7003;46.982;15.248;2023-05-10T08:35:32;4.90;;;3.42;;
13866;SDS011;7003;46.982;15.248;2023-05-10T08:38:02;4.72;;;3.55;;
13866;SDS011;7003;46.982;15.248;2023-05-10T08:40:32;3.45;;;3.15;;
13866;SDS011;7003;46.982;15.248;2023-05-10T08:43:04;4.10;;;3.28;;
13866;SDS011;7003;46.982;15.248;2023-05-10T08:45:36;4.80;;;3.28;;
13866;SDS011;7003;46.982;15.248;2023-05-10T08:48:06;5.55;;;4.10;;
13866;SDS011;7003;46.982;15.248;2023-05-10T08:50:37;3.72;;;3.03;;
13866;SDS011;7003;46.982;15.248;2023-05-10T08:53:06;5.90;;;3.88;;
13866;SDS011;7003;46.982;15.248;2023-05-10T08:55:39;4.32;;;3.90;;
13866;SDS011;7003;46.982;15.248;2023-05-10T08:58:08;4.40;;;4.00;;
13866;SDS011;7003;46.982;15.248;2023-05-10T09:00:36;3.40;;;3.08;;
13866;SDS011;7003;46.982;15.248;2023-05-10T09:03:04;4.43;;;2.95;;
13866;SDS011;7003;46.982;15.248;2023-05-10T09:05:32;3.75;;;3.40;;
13866;SDS011;7003;46.982;15.248;2023-05-10T09:08:01;4.25;;;3.75;;
13866;SDS011;7003;46.982;15.248;2023-05-10T09:10:29;4.68;;;3.28;;
13866;SDS011;7003;46.982;15.248;2023-05-10T09:12:57;4.55;;;3.35;;
13866;SDS011;7003;46.982;15.248;2023-05-10T09:15:25;4.78;;;2.95;;
13866;SDS011;7003;46.982;15.248;2023-05-10T09:17:53;5.32;;;3.38;;
13866;SDS011;7003;46.982;15.248;2023-05-10T09:20:24;4.80;;;3.55;;
13866;SDS011;7003;46.982;15.248;2023-05-10T09:22:54;4.60;;;3.42;;
13866;SDS011;7003;46.982;15.248;2023-05-10T09:25:23;3.33;;;3.03;;
13866;SDS011;7003;46.982;15.248;2023-05-10T09:30:42;3.70;;;3.20;;
13866;SDS011;7003;46.982;15.248;2023-05-10T09:33:12;4.68;;;3.28;;
13866;SDS011;7003;46.982;15.248;2023-05-10T09:35:42;3.53;;;2.40;;
13866;SDS011;7003;46.982;15.248;2023-05-10T09:38:12;2.97;;;2.45;;
13866;SDS011;7003;46.982;15.248;2023-05-10T09:40:43;3.17;;;2.88;;
13866;SDS011;7003;46.982;15.248;2023-05-10T09:43:24;3.00;;;2.55;;
13866;SDS011;7003;46.982;15.248;2023-05-10T09:45:53;3.08;;;2.70;;
13866;SDS011;7003;46.982;15.248;2023-05-10T09:48:21;3.53;;;3.08;;
13866;SDS011;7003;46.982;15.248;2023-05-10T09:50:56;3.63;;;3.05;;
13866;SDS011;7003;46.982;15.248;2023-05-10T09:53:27;2.53;;;2.22;;
13866;SDS011;7003;46.982;15.248;2023-05-10T09:55:55;2.63;;;2.40;;
13866;SDS011;7003;46.982;15.248;2023-05-10T09:58:26;1.83;;;1.33;;
13866;SDS011;7003;46.982;15.248;2023-05-10T10:00:54;2.60;;;2.40;;
13866;SDS011;7003;46.982;15.248;2023-05-10T10:03:25;2.63;;;2.42;;
13866;SDS011;7003;46.982;15.248;2023-05-10T10:05:55;3.03;;;2.45;;
13866;SDS011;7003;46.982;15.248;2023-05-10T10:08:25;3.20;;;2.40;;
13866;SDS011;7003;46.982;15.248;2023-05-10T10:10:57;4.25;;;3.17;;
13866;SDS011;7003;46.982;15.248;2023-05-10T10:13:25;3.38;;;3.08;;
13866;SDS011;7003;46.982;15.248;2023-05-10T10:15:54;2.40;;;2.20;;
13866;SDS011;7003;46.982;15.248;2023-05-10T10:18:22;3.20;;;2.90;;
13866;SDS011;7003;46.982;15.248;2023-05-10T10:20:55;4.43;;;3.25;;
13866;SDS011;7003;46.982;15.248;2023-05-10T10:23:23;2.83;;;1.80;;
13866;SDS011;7003;46.982;15.248;2023-05-10T10:25:51;3.10;;;2.35;;
13866;SDS011;7003;46.982;15.248;2023-05-10T10:28:24;2.67;;;2.15;;
13866;SDS011;7003;46.982;15.248;2023-05-10T10:31:00;2.38;;;1.92;;
13866;SDS011;7003;46.982;15.248;2023-05-10T10:33:47;2.20;;;2.00;;
13866;SDS011;7003;46.982;15.248;2023-05-10T10:36:22;2.55;;;2.03;;
13866;SDS011;7003;46.982;15.248;2023-05-10T10:38:56;2.90;;;2.28;;
13866;SDS011;7003;46.982;15.248;2023-05-10T10:41:32;3.72;;;2.92;;
13866;SDS011;7003;46.982;15.248;2023-05-10T10:47:02;2.53;;;2.30;;
13866;SDS011;7003;46.982;15.248;2023-05-10T10:49:37;2.63;;;1.88;;
13866;SDS011;7003;46.982;15.248;2023-05-10T10:52:21;2.88;;;2.58;;
13866;SDS011;7003;46.982;15.248;2023-05-10T10:54:58;2.13;;;1.92;;
13866;SDS011;7003;46.982;15.248;2023-05-10T10:57:27;2.28;;;2.08;;
13866;SDS011;7003;46.982;15.248;2023-05-10T11:00:23;3.17;;;2.25;;
13866;SDS011;7003;46.982;15.248;2023-05-10T11:02:52;3.80;;;2.47;;
13866;SDS011;7003;46.982;15.248;2023-05-10T11:08:12;2.35;;;2.15;;
13866;SDS011;7003;46.982;15.248;2023-05-10T11:10:51;2.63;;;2.05;;
13866;SDS011;7003;46.982;15.248;2023-05-10T11:13:27;2.30;;;2.13;;
13866;SDS011;7003;46.982;15.248;2023-05-10T11:16:09;3.25;;;2.28;;
13866;SDS011;7003;46.982;15.248;2023-05-10T11:18:38;4.90;;;2.53;;
13866;SDS011;7003;46.982;15.248;2023-05-10T11:21:07;2.80;;;2.08;;
13866;SDS011;7003;46.982;15.248;2023-05-10T11:23:47;2.83;;;1.80;;
13866;SDS011;7003;46.982;15.248;2023-05-10T11:26:18;2.70;;;2.22;;
13866;SDS011;7003;46.982;15.248;2023-05-10T11:28:48;3.15;;;2.90;;
13866;SDS011;7003;46.982;15.248;2023-05-10T11:31:18;2.72;;;2.28;;
13866;SDS011;7003;46.982;15.248;2023-05-10T11:33:50;4.13;;;2.88;;
13866;SDS011;7003;46.982;15.248;2023-05-10T11:36:21;2.67;;;2.17;;
13866;SDS011;7003;46.982;15.248;2023-05-10T11:38:53;2.28;;;2.03;;
13866;SDS011;7003;46.982;15.248;2023-05-10T11:41:24;2.83;;;2.47;;
13866;SDS011;7003;46.982;15.248;2023-05-10T11:43:59;3.45;;;3.00;;
13866;SDS011;7003;46.982;15.248;2023-05-10T11:46:29;2.60;;;2.33;;
13866;SDS011;7003;46.982;15.248;2023-05-10T11:48:57;2.65;;;2.45;;
13866;SDS011;7003;46.982;15.248;2023-05-10T11:51:29;2.40;;;2.20;;
13866;SDS011;7003;46.982;15.248;2023-05-10T11:54:05;2.38;;;2.17;;
13866;SDS011;7003;46.982;15.248;2023-05-10T11:56:33;2.30;;;2.10;;
13866;SDS011;7003;46.982;15.248;2023-05-10T11:59:01;3.78;;;2.65;;
13866;SDS011;7003;46.982;15.248;2023-05-10T12:01:30;2.50;;;2.30;;
13866;SDS011;7003;46.982;15.248;2023-05-10T12:03:58;3.00;;;2.80;;
13866;SDS011;7003;46.982;15.248;2023-05-10T12:06:28;3.67;;;2.75;;
13866;SDS011;7003;46.982;15.248;2023-05-10T12:08:57;4.18;;;3.05;;
13866;SDS011;7003;46.982;15.248;2023-05-10T12:11:25;2.60;;;2.40;;
13866;SDS011;7003;46.982;15.248;2023-05-10T12:13:54;2.80;;;2.60;;
13866;SDS011;7003;46.982;15.248;2023-05-10T12:16:23;3.22;;;2.90;;
13866;SDS011;7003;46.982;15.248;2023-05-10T12:18:53;7.38;;;3.17;;
13866;SDS011;7003;46.982;15.248;2023-05-10T12:21:22;3.90;;;2.70;;
13866;SDS011;7003;46.982;15.248;2023-05-10T12:23:51;3.80;;;3.10;;
13866;SDS011;7003;46.982;15.248;2023-05-10T12:26:21;3.70;;;3.30;;
13866;SDS011;7003;46.982;15.248;2023-05-10T12:28:50;3.97;;;2.42;;
13866;SDS011;7003;46.982;15.248;2023-05-10T12:31:18;2.55;;;2.35;;
13866;SDS011;7003;46.982;15.248;2023-05-10T12:33:46;3.10;;;2.80;;
13866;SDS011;7003;46.982;15.248;2023-05-10T12:36:16;3.47;;;3.17;;
13866;SDS011;7003;46.982;15.248;2023-05-10T12:38:59;3.22;;;2.90;;
13866;SDS011;7003;46.982;15.248;2023-05-10T12:41:30;2.80;;;2.60;;
13866;SDS011;7003;46.982;15.248;2023-05-10T12:44:00;3.55;;;3.25;;
13866;SDS011;7003;46.982;15.248;2023-05-10T12:46:28;9.13;;;4.22;;
13866;SDS011;7003;46.982;15.248;2023-05-10T12:48:55;3.58;;;2.95;;
13866;SDS011;7003;46.982;15.248;2023-05-10T12:51:27;3.15;;;2.85;;
13866;SDS011;7003;46.982;15.248;2023-05-10T12:53:56;3.13;;;2.83;;
13866;SDS011;7003;46.982;15.248;2023-05-10T12:56:26;4.25;;;3.85;;
13866;SDS011;7003;46.982;15.248;2023-05-10T12:58:54;5.38;;;4.28;;
13866;SDS011;7003;46.982;15.248;2023-05-10T13:01:21;3.95;;;3.55;;
13866;SDS011;7003;46.982;15.248;2023-05-10T13:03:51;3.88;;;3.53;;
13866;SDS011;7003;46.982;15.248;2023-05-10T13:06:19;3.78;;;3.40;;
13866;SDS011;7003;46.982;15.248;2023-05-10T13:08:49;3.80;;;3.42;;
13866;SDS011;7003;46.982;15.248;2023-05-10T13:11:19;4.00;;;3.53;;
13866;SDS011;7003;46.982;15.248;2023-05-10T13:13:47;4.10;;;3.15;;
13866;SDS011;7003;46.982;15.248;2023-05-10T13:16:15;3.75;;;3.42;;
13866;SDS011;7003;46.982;15.248;2023-05-10T13:18:43;4.47;;;3.75;;
13866;SDS011;7003;46.982;15.248;2023-05-10T13:21:11;3.95;;;3.55;;
13866;SDS011;7003;46.982;15.248;2023-05-10T13:23:42;4.05;;;3.72;;
13866;SDS011;7003;46.982;15.248;2023-05-10T13:26:13;4.45;;;4.05;;
13866;SDS011;7003;46.982;15.248;2023-05-10T13:28:44;4.97;;;4.45;;
13866;SDS011;7003;46.982;15.248;2023-05-10T13:31:11;3.80;;;3.50;;
13866;SDS011;7003;46.982;15.248;2023-05-10T13:33:43;3.75;;;3.45;;
13866;SDS011;7003;46.982;15.248;2023-05-10T13:36:11;4.47;;;4.07;;
13866;SDS011;7003;46.982;15.248;2023-05-10T13:38:39;5.68;;;3.20;;
13866;SDS011;7003;46.982;15.248;2023-05-10T13:41:07;5.60;;;3.80;;
13866;SDS011;7003;46.982;15.248;2023-05-10T13:43:36;4.40;;;3.00;;
13866;SDS011;7003;46.982;15.248;2023-05-10T13:46:04;3.67;;;3.33;;
13866;SDS011;7003;46.982;15.248;2023-05-10T13:48:34;2.75;;;2.55;;
13866;SDS011;7003;46.982;15.248;2023-05-10T13:51:03;4.32;;;4.03;;
13866;SDS011;7003;46.982;15.248;2023-05-10T13:53:30;3.55;;;3.20;;
13866;SDS011;7003;46.982;15.248;2023-05-10T13:55:58;4.45;;;3.92;;
13866;SDS011;7003;46.982;15.248;2023-05-10T13:58:30;4.20;;;3.85;;
13866;SDS011;7003;46.982;15.248;2023-05-10T14:00:59;3.88;;;3.47;;
13866;SDS011;7003;46.982;15.248;2023-05-10T14:03:27;4.00;;;3.65;;
13866;SDS011;7003;46.982;15.248;2023-05-10T14:05:57;3.58;;;3.15;;
13866;SDS011;7003;46.982;15.248;2023-05-10T14:08:28;3.08;;;2.88;;
13866;SDS011;7003;46.982;15.248;2023-05-10T14:10:55;3.83;;;3.53;;
13866;SDS011;7003;46.982;15.248;2023-05-10T14:13:23;7.18;;;3.38;;
13866;SDS011;7003;46.982;15.248;2023-05-10T14:15:53;4.82;;;3.65;;
13866;SDS011;7003;46.982;15.248;2023-05-10T14:18:23;4.05;;;3.58;;
13866;SDS011;7003;46.982;15.248;2023-05-10T14:20:53;4.28;;;3.80;;
13866;SDS011;7003;46.982;15.248;2023-05-10T14:23:21;3.17;;;2.90;;
13866;SDS011;7003;46.982;15.248;2023-05-10T14:25:52;3.65;;;3.35;;
13866;SDS011;7003;46.982;15.248;2023-05-10T14:28:22;4.07;;;3.22;;
13866;SDS011;7003;46.982;15.248;2023-05-10T14:30:50;3.15;;;2.92;;
13866;SDS011;7003;46.982;15.248;2023-05-10T14:33:23;4.50;;;3.72;;
13866;SDS011;7003;46.982;15.248;2023-05-10T14:35:53;4.88;;;4.47;;
13866;SDS011;7003;46.982;15.248;2023-05-10T14:38:22;4.07;;;3.65;;
13866;SDS011;7003;46.982;15.248;2023-05-10T14:40:50;3.75;;;3.45;;
13866;SDS011;7003;46.982;15.248;2023-05-10T14:43:18;4.28;;;3.88;;
13866;SDS011;7003;46.982;15.248;2023-05-10T14:45:45;4.25;;;3.85;;
13866;SDS011;7003;46.982;15.248;2023-05-10T14:48:16;6.07;;;4.22;;
13866;SDS011;7003;46.982;15.248;2023-05-10T14:50:45;4.10;;;3.70;;
13866;SDS011;7003;46.982;15.248;2023-05-10T14:53:16;4.00;;;3.60;;
13866;SDS011;7003;46.982;15.248;2023-05-10T14:55:44;4.50;;;4.10;;
13866;SDS011;7003;46.982;15.248;2023-05-10T14:58:14;6.15;;;4.45;;
13866;SDS011;7003;46.982;15.248;2023-05-10T15:00:42;3.55;;;3.25;;
13866;SDS011;7003;46.982;15.248;2023-05-10T15:03:10;3.97;;;3.67;;
13866;SDS011;7003;46.982;15.248;2023-05-10T15:05:37;5.47;;;3.83;;
13866;SDS011;7003;46.982;15.248;2023-05-10T15:08:07;5.03;;;4.53;;
13866;SDS011;7003;46.982;15.248;2023-05-10T15:10:37;4.82;;;4.28;;
13866;SDS011;7003;46.982;15.248;2023-05-10T15:13:05;5.63;;;3.72;;
13866;SDS011;7003;46.982;15.248;2023-05-10T15:15:33;3.92;;;3.55;;
13866;SDS011;7003;46.982;15.248;2023-05-10T15:18:04;4.63;;;4.22;;